Atlantic Tramp — V7SM5 — position and weather

sailwx.info

Track history (hours):
 
Tides and Currents Weather Stations Pressure Air Temp Water Temp Dewpoint Dewpoint Depression Visibility Wind Speed Wind Dir Waves Ship Positions

Atlantic Tramp

Last reported at 2015-Aug-02 14:29 UTC. Time now 2015-Aug-03 19:13 UTC.
Position N 36°31' W 009°10'.

Length 180 m; draft 9.6 m.

Type: Cargo ship. MMSI: 538003682.

Date/timePositionNaut miles runAvg speedWind from/ knotsBaromVisibWave heightAir tempDewpointWater temp
2015-Aug-02 14:29N 36°31' W 009°10'2412.3
2015-Aug-02 12:32N 36°47' W 009°33'1613.3
2015-Aug-02 11:18N 37°03' W 009°37'1012.6
2015-Aug-02 10:33N 37°12' W 009°40'1313.1
2015-Aug-02 09:33N 37°25' W 009°44'1312.9
2015-Aug-02 08:33N 37°38' W 009°48'1313.1
2015-Aug-02 07:33N 37°50' W 009°51'1312.9
2015-Aug-02 06:33N 38°03' W 009°55'1312.8
2015-Aug-02 05:33N 38°16' W 009°58'1312.7
2015-Aug-02 04:34N 38°28' W 010°02'1312.7
2015-Aug-02 03:33N 38°40' W 010°06'1312.6
2015-Aug-02 02:33N 38°53' W 010°06'1212.3
2015-Aug-02 01:34N 39°05' W 010°06'1512.5
2015-Aug-02 00:24N 39°20' W 010°06'1112.8
2015-Aug-01 23:33N 39°30' W 010°06'1812.8
2015-Aug-01 22:08N 39°49' W 010°06'1012.7
2015-Aug-01 21:21N 39°59' W 010°06'  
2015-Jul-30 04:10N 50°31' E 000°01'1013.5
2015-Jul-30 03:24N 50°34' E 000°17'1213.8
2015-Jul-30 02:33N 50°37' E 000°34'1313.4
2015-Jul-30 01:33N 50°45' E 000°52'1312.6
2015-Jul-30 00:33N 50°53' E 001°07'1111.3
2015-Jul-29 23:33N 51°00' E 001°20'1010.3
2015-Jul-29 22:33N 51°07' E 001°33'1110.6
2015-Jul-29 21:33N 51°14' E 001°45'1212.5
2015-Jul-29 20:34N 51°26' E 001°54'1414.0
2015-Jul-29 19:33N 51°36' E 002°09'21611.9
2015-Jul-29 01:28N 54°46' E 004°58'26411.0
2015-Jul-28 01:25N 57°49' E 010°42'1011.8
2015-Jul-28 00:33N 57°45' E 010°59'1312.5
2015-Jul-27 23:33N 57°39' E 011°20'1211.7
2015-Jul-27 22:33N 57°35' E 011°40'1 1.2
2015-Jul-27 21:31N 57°36' E 011°42'0 0.0
2015-Jul-27 20:31N 57°36' E 011°42'0 0.0
2015-Jul-27 19:31N 57°36' E 011°42'0 0.0
2015-Jul-27 18:31N 57°36' E 011°42'0 0.0
2015-Jul-27 17:31N 57°36' E 011°42'0 0.0
2015-Jul-27 16:31N 57°36' E 011°42'1 1.4
2015-Jul-27 15:33N 57°35' E 011°40'1010.2
2015-Jul-27 14:33N 57°28' E 011°26'1312.8
2015-Jul-27 13:33N 57°16' E 011°35'1312.7
2015-Jul-27 12:32N 57°04' E 011°43'1212.6
2015-Jul-27 11:33N 56°52' E 011°50'1211.8
2015-Jul-27 10:32N 56°40' E 011°48'12411.0
2015-Jul-26 23:15N 54°40' E 010°47'811.9
2015-Jul-26 22:33N 54°36' E 010°60'1211.5
2015-Jul-26 21:33N 54°34' E 011°19'1211.6
2015-Jul-26 20:33N 54°29' E 011°37'1111.4
2015-Jul-26 19:33N 54°26' E 011°56'1010.2
2015-Jul-26 18:33N 54°29' E 012°13'5511.0
2015-Jul-26 13:33N 54°58' E 013°34'1111.3
2015-Jul-26 12:33N 55°02' E 013°52'1110.9
2015-Jul-26 11:33N 55°07' E 014°09'1111.5
2015-Jul-26 10:33N 55°16' E 014°21'1111.3
2015-Jul-26 09:33N 55°25' E 014°34'1111.0
2015-Jul-26 08:33N 55°31' E 014°50'1110.8
2015-Jul-26 07:32N 55°36' E 015°07'32911.4
2015-Jul-25 02:33N 59°28' E 022°23'1212.0
2015-Jul-25 01:32N 59°33' E 022°45'1212.1
2015-Jul-25 00:33N 59°36' E 023°07'1212.1
2015-Jul-24 23:33N 59°40' E 023°30'1212.2
2015-Jul-24 22:34N 59°43' E 023°53'6311.7
2015-Jul-24 17:12N 59°56' E 025°56'1810.8
2015-Jul-24 15:33N 60°09' E 026°21'9 9.5
2015-Jul-24 14:33N 60°17' E 026°31'10 9.9
2015-Jul-24 13:34N 60°23' E 026°47'1010.0
2015-Jul-24 12:33N 60°21' E 027°07'9 8.9
2015-Jul-24 11:33N 60°28' E 027°16'  
Track history (hours):
 
Tides and Currents Weather Stations Pressure Air Temp Water Temp Dewpoint Dewpoint Depression Visibility Wind Speed Wind Dir Waves Ship Positions

Atlantic Tramp

Last reported at 2015-Aug-02 14:29 UTC. Time now 2015-Aug-03 19:13 UTC.
Position N 36°31' W 009°10'.

Length 180 m; draft 9.6 m.

Type: Cargo ship. MMSI: 538003682.

Date/timePositionNaut miles runAvg speedWind from/ knotsBaromVisibWave heightAir tempDewpointWater temp
2015-Aug-02 14:29N 36°31' W 009°10'2412.3
2015-Aug-02 12:32N 36°47' W 009°33'1613.3
2015-Aug-02 11:18N 37°03' W 009°37'1012.6
2015-Aug-02 10:33N 37°12' W 009°40'1313.1
2015-Aug-02 09:33N 37°25' W 009°44'1312.9
2015-Aug-02 08:33N 37°38' W 009°48'1313.1
2015-Aug-02 07:33N 37°50' W 009°51'1312.9
2015-Aug-02 06:33N 38°03' W 009°55'1312.8
2015-Aug-02 05:33N 38°16' W 009°58'1312.7
2015-Aug-02 04:34N 38°28' W 010°02'1312.7
2015-Aug-02 03:33N 38°40' W 010°06'1312.6
2015-Aug-02 02:33N 38°53' W 010°06'1212.3
2015-Aug-02 01:34N 39°05' W 010°06'1512.5
2015-Aug-02 00:24N 39°20' W 010°06'1112.8
2015-Aug-01 23:33N 39°30' W 010°06'1812.8
2015-Aug-01 22:08N 39°49' W 010°06'1012.7
2015-Aug-01 21:21N 39°59' W 010°06'  
2015-Jul-30 04:10N 50°31' E 000°01'1013.5
2015-Jul-30 03:24N 50°34' E 000°17'1213.8
2015-Jul-30 02:33N 50°37' E 000°34'1313.4
2015-Jul-30 01:33N 50°45' E 000°52'1312.6
2015-Jul-30 00:33N 50°53' E 001°07'1111.3
2015-Jul-29 23:33N 51°00' E 001°20'1010.3
2015-Jul-29 22:33N 51°07' E 001°33'1110.6
2015-Jul-29 21:33N 51°14' E 001°45'1212.5
2015-Jul-29 20:34N 51°26' E 001°54'1414.0
2015-Jul-29 19:33N 51°36' E 002°09'21611.9
2015-Jul-29 01:28N 54°46' E 004°58'26411.0
2015-Jul-28 01:25N 57°49' E 010°42'1011.8
2015-Jul-28 00:33N 57°45' E 010°59'1312.5
2015-Jul-27 23:33N 57°39' E 011°20'1211.7
2015-Jul-27 22:33N 57°35' E 011°40'1 1.2
2015-Jul-27 21:31N 57°36' E 011°42'0 0.0
2015-Jul-27 20:31N 57°36' E 011°42'0 0.0
2015-Jul-27 19:31N 57°36' E 011°42'0 0.0
2015-Jul-27 18:31N 57°36' E 011°42'0 0.0
2015-Jul-27 17:31N 57°36' E 011°42'0 0.0
2015-Jul-27 16:31N 57°36' E 011°42'1 1.4
2015-Jul-27 15:33N 57°35' E 011°40'1010.2
2015-Jul-27 14:33N 57°28' E 011°26'1312.8
2015-Jul-27 13:33N 57°16' E 011°35'1312.7
2015-Jul-27 12:32N 57°04' E 011°43'1212.6
2015-Jul-27 11:33N 56°52' E 011°50'1211.8
2015-Jul-27 10:32N 56°40' E 011°48'12411.0
2015-Jul-26 23:15N 54°40' E 010°47'811.9
2015-Jul-26 22:33N 54°36' E 010°60'1211.5
2015-Jul-26 21:33N 54°34' E 011°19'1211.6
2015-Jul-26 20:33N 54°29' E 011°37'1111.4
2015-Jul-26 19:33N 54°26' E 011°56'1010.2
2015-Jul-26 18:33N 54°29' E 012°13'5511.0
2015-Jul-26 13:33N 54°58' E 013°34'1111.3
2015-Jul-26 12:33N 55°02' E 013°52'1110.9
2015-Jul-26 11:33N 55°07' E 014°09'1111.5
2015-Jul-26 10:33N 55°16' E 014°21'1111.3
2015-Jul-26 09:33N 55°25' E 014°34'1111.0
2015-Jul-26 08:33N 55°31' E 014°50'1110.8
2015-Jul-26 07:32N 55°36' E 015°07'32911.4
2015-Jul-25 02:33N 59°28' E 022°23'1212.0
2015-Jul-25 01:32N 59°33' E 022°45'1212.1
2015-Jul-25 00:33N 59°36' E 023°07'1212.1
2015-Jul-24 23:33N 59°40' E 023°30'1212.2
2015-Jul-24 22:34N 59°43' E 023°53'6311.7
2015-Jul-24 17:12N 59°56' E 025°56'1810.8
2015-Jul-24 15:33N 60°09' E 026°21'9 9.5
2015-Jul-24 14:33N 60°17' E 026°31'10 9.9
2015-Jul-24 13:34N 60°23' E 026°47'1010.0
2015-Jul-24 12:33N 60°21' E 027°07'9 8.9
2015-Jul-24 11:33N 60°28' E 027°16'  

Dump ship's entire track history